sensor_id;sensor_type;location;lat;lon;timestamp;temperature;humidity
40738;DHT22;54759;48.094;-1.628;2023-07-30T00:02:18;23.30;78.30
40738;DHT22;54759;48.094;-1.628;2023-07-30T00:05:20;24.00;78.50
40738;DHT22;54759;48.094;-1.628;2023-07-30T00:08:23;24.10;78.60
40738;DHT22;54759;48.094;-1.628;2023-07-30T00:11:24;24.10;78.50
40738;DHT22;54759;48.094;-1.628;2023-07-30T00:14:26;24.10;78.40
40738;DHT22;54759;48.094;-1.628;2023-07-30T00:17:28;24.00;78.50
40738;DHT22;54759;48.094;-1.628;2023-07-30T00:20:30;24.00;77.90
40738;DHT22;54759;48.094;-1.628;2023-07-30T00:23:32;24.00;77.70
40738;DHT22;54759;48.094;-1.628;2023-07-30T00:26:34;23.90;78.20
40738;DHT22;54759;48.094;-1.628;2023-07-30T00:29:36;24.10;77.60
40738;DHT22;54759;48.094;-1.628;2023-07-30T00:32:37;23.90;77.80
40738;DHT22;54759;48.094;-1.628;2023-07-30T00:35:47;23.90;77.50
40738;DHT22;54759;48.094;-1.628;2023-07-30T00:38:48;23.90;77.60
40738;DHT22;54759;48.094;-1.628;2023-07-30T00:41:53;23.90;77.00
40738;DHT22;54759;48.094;-1.628;2023-07-30T00:44:54;24.00;73.80
40738;DHT22;54759;48.094;-1.628;2023-07-30T00:47:58;23.60;77.10
40738;DHT22;54759;48.094;-1.628;2023-07-30T00:51:00;23.90;76.50
40738;DHT22;54759;48.094;-1.628;2023-07-30T00:54:02;23.80;76.30
40738;DHT22;54759;48.094;-1.628;2023-07-30T00:57:04;23.80;76.40
40738;DHT22;54759;48.094;-1.628;2023-07-30T01:00:06;23.80;76.50
40738;DHT22;54759;48.094;-1.628;2023-07-30T01:03:10;23.50;76.20
40738;DHT22;54759;48.094;-1.628;2023-07-30T01:06:14;24.50;77.20
40738;DHT22;54759;48.094;-1.628;2023-07-30T01:09:16;23.90;77.00
40738;DHT22;54759;48.094;-1.628;2023-07-30T01:12:17;23.90;76.90
40738;DHT22;54759;48.094;-1.628;2023-07-30T01:15:21;23.70;76.50
40738;DHT22;54759;48.094;-1.628;2023-07-30T01:18:22;23.80;76.60
40738;DHT22;54759;48.094;-1.628;2023-07-30T01:21:24;23.70;76.70
40738;DHT22;54759;48.094;-1.628;2023-07-30T01:24:26;23.80;76.50
40738;DHT22;54759;48.094;-1.628;2023-07-30T01:27:29;23.40;76.20
40738;DHT22;54759;48.094;-1.628;2023-07-30T01:30:38;23.70;76.70
40738;DHT22;54759;48.094;-1.628;2023-07-30T01:33:42;23.80;76.80
40738;DHT22;54759;48.094;-1.628;2023-07-30T01:36:45;23.30;76.10
40738;DHT22;54759;48.094;-1.628;2023-07-30T01:39:48;23.70;76.30
40738;DHT22;54759;48.094;-1.628;2023-07-30T01:42:53;23.80;76.40
40738;DHT22;54759;48.094;-1.628;2023-07-30T01:45:54;23.50;76.80
40738;DHT22;54759;48.094;-1.628;2023-07-30T01:48:58;23.50;76.30
40738;DHT22;54759;48.094;-1.628;2023-07-30T01:52:01;23.70;76.60
40738;DHT22;54759;48.094;-1.628;2023-07-30T01:55:04;23.40;76.30
40738;DHT22;54759;48.094;-1.628;2023-07-30T01:58:05;23.60;76.40
40738;DHT22;54759;48.094;-1.628;2023-07-30T02:01:07;23.60;76.60
40738;DHT22;54759;48.094;-1.628;2023-07-30T02:04:10;23.60;77.30
40738;DHT22;54759;48.094;-1.628;2023-07-30T02:07:12;23.70;76.90
40738;DHT22;54759;48.094;-1.628;2023-07-30T02:10:13;23.60;76.80
40738;DHT22;54759;48.094;-1.628;2023-07-30T02:13:15;23.60;76.90
40738;DHT22;54759;48.094;-1.628;2023-07-30T02:16:17;23.60;76.90
40738;DHT22;54759;48.094;-1.628;2023-07-30T02:19:20;23.60;77.20
40738;DHT22;54759;48.094;-1.628;2023-07-30T02:22:22;23.50;77.20
40738;DHT22;54759;48.094;-1.628;2023-07-30T02:25:25;23.50;76.10
40738;DHT22;54759;48.094;-1.628;2023-07-30T02:28:27;23.60;77.40
40738;DHT22;54759;48.094;-1.628;2023-07-30T02:31:29;23.50;77.20
40738;DHT22;54759;48.094;-1.628;2023-07-30T02:34:33;23.60;77.10
40738;DHT22;54759;48.094;-1.628;2023-07-30T02:37:37;23.60;77.00
40738;DHT22;54759;48.094;-1.628;2023-07-30T02:40:41;23.50;77.00
40738;DHT22;54759;48.094;-1.628;2023-07-30T02:43:46;23.50;77.00
40738;DHT22;54759;48.094;-1.628;2023-07-30T02:46:47;23.50;76.90
40738;DHT22;54759;48.094;-1.628;2023-07-30T02:49:49;23.40;76.90
40738;DHT22;54759;48.094;-1.628;2023-07-30T02:52:51;23.50;77.00
40738;DHT22;54759;48.094;-1.628;2023-07-30T02:55:53;23.20;76.90
40738;DHT22;54759;48.094;-1.628;2023-07-30T02:58:54;23.30;77.60
40738;DHT22;54759;48.094;-1.628;2023-07-30T03:01:58;23.40;77.20
40738;DHT22;54759;48.094;-1.628;2023-07-30T03:04:59;23.40;77.60
40738;DHT22;54759;48.094;-1.628;2023-07-30T03:08:04;23.50;77.20
40738;DHT22;54759;48.094;-1.628;2023-07-30T03:11:06;23.50;77.50
40738;DHT22;54759;48.094;-1.628;2023-07-30T03:14:07;23.40;77.20
40738;DHT22;54759;48.094;-1.628;2023-07-30T03:17:09;23.50;77.40
40738;DHT22;54759;48.094;-1.628;2023-07-30T03:20:11;23.40;77.40
40738;DHT22;54759;48.094;-1.628;2023-07-30T03:23:13;23.50;78.40
40738;DHT22;54759;48.094;-1.628;2023-07-30T03:26:15;23.10;78.10
40738;DHT22;54759;48.094;-1.628;2023-07-30T03:29:16;23.60;77.70
40738;DHT22;54759;48.094;-1.628;2023-07-30T03:32:18;23.40;77.30
40738;DHT22;54759;48.094;-1.628;2023-07-30T03:35:19;23.20;77.20
40738;DHT22;54759;48.094;-1.628;2023-07-30T03:38:27;23.40;77.20
40738;DHT22;54759;48.094;-1.628;2023-07-30T03:41:30;23.50;77.30
40738;DHT22;54759;48.094;-1.628;2023-07-30T03:44:38;23.30;76.70
40738;DHT22;54759;48.094;-1.628;2023-07-30T03:47:40;23.30;76.60
40738;DHT22;54759;48.094;-1.628;2023-07-30T03:50:41;23.00;76.10
40738;DHT22;54759;48.094;-1.628;2023-07-30T03:53:45;23.30;76.00
40738;DHT22;54759;48.094;-1.628;2023-07-30T03:56:47;23.10;91.30
40738;DHT22;54759;48.094;-1.628;2023-07-30T03:59:51;23.40;75.60
40738;DHT22;54759;48.094;-1.628;2023-07-30T04:02:52;23.40;75.40
40738;DHT22;54759;48.094;-1.628;2023-07-30T04:05:54;23.30;75.40
40738;DHT22;54759;48.094;-1.628;2023-07-30T04:08:57;23.20;74.80
40738;DHT22;54759;48.094;-1.628;2023-07-30T04:11:59;22.90;74.60
40738;DHT22;54759;48.094;-1.628;2023-07-30T04:15:01;23.30;74.70
40738;DHT22;54759;48.094;-1.628;2023-07-30T04:18:02;23.30;74.30
40738;DHT22;54759;48.094;-1.628;2023-07-30T04:21:04;22.90;73.60
40738;DHT22;54759;48.094;-1.628;2023-07-30T04:24:09;23.40;74.60
40738;DHT22;54759;48.094;-1.628;2023-07-30T04:27:10;23.30;74.30
40738;DHT22;54759;48.094;-1.628;2023-07-30T04:30:12;23.30;74.30
40738;DHT22;54759;48.094;-1.628;2023-07-30T04:33:15;23.30;74.20
40738;DHT22;54759;48.094;-1.628;2023-07-30T04:36:16;23.40;73.90
40738;DHT22;54759;48.094;-1.628;2023-07-30T04:39:22;23.30;73.70
40738;DHT22;54759;48.094;-1.628;2023-07-30T04:42:24;23.30;73.60
40738;DHT22;54759;48.094;-1.628;2023-07-30T04:45:26;23.30;73.10
40738;DHT22;54759;48.094;-1.628;2023-07-30T04:48:29;23.00;73.60
40738;DHT22;54759;48.094;-1.628;2023-07-30T04:51:32;23.30;73.30
40738;DHT22;54759;48.094;-1.628;2023-07-30T04:54:34;23.10;73.20
40738;DHT22;54759;48.094;-1.628;2023-07-30T04:57:37;23.20;72.90
40738;DHT22;54759;48.094;-1.628;2023-07-30T05:00:38;23.20;73.00
40738;DHT22;54759;48.094;-1.628;2023-07-30T05:03:40;23.30;72.80
40738;DHT22;54759;48.094;-1.628;2023-07-30T05:06:41;23.50;73.30
40738;DHT22;54759;48.094;-1.628;2023-07-30T05:09:43;22.60;72.10
40738;DHT22;54759;48.094;-1.628;2023-07-30T05:12:45;23.10;72.20
40738;DHT22;54759;48.094;-1.628;2023-07-30T05:15:46;23.10;72.30
40738;DHT22;54759;48.094;-1.628;2023-07-30T05:18:50;22.60;71.90
40738;DHT22;54759;48.094;-1.628;2023-07-30T05:21:51;23.20;72.60
40738;DHT22;54759;48.094;-1.628;2023-07-30T05:24:53;23.10;72.70
40738;DHT22;54759;48.094;-1.628;2023-07-30T05:27:56;23.20;73.00
40738;DHT22;54759;48.094;-1.628;2023-07-30T05:30:57;23.20;72.40
40738;DHT22;54759;48.094;-1.628;2023-07-30T05:33:59;22.80;72.50
40738;DHT22;54759;48.094;-1.628;2023-07-30T05:37:01;23.10;73.20
40738;DHT22;54759;48.094;-1.628;2023-07-30T05:40:03;22.80;71.90
40738;DHT22;54759;48.094;-1.628;2023-07-30T05:43:05;23.30;72.70
40738;DHT22;54759;48.094;-1.628;2023-07-30T05:46:07;23.30;72.10
40738;DHT22;54759;48.094;-1.628;2023-07-30T05:49:12;23.30;73.00
40738;DHT22;54759;48.094;-1.628;2023-07-30T05:52:16;23.30;72.30
40738;DHT22;54759;48.094;-1.628;2023-07-30T05:55:19;23.20;72.40
40738;DHT22;54759;48.094;-1.628;2023-07-30T05:58:20;23.10;72.40
40738;DHT22;54759;48.094;-1.628;2023-07-30T06:01:22;23.20;72.10
40738;DHT22;54759;48.094;-1.628;2023-07-30T06:04:24;23.10;72.00
40738;DHT22;54759;48.094;-1.628;2023-07-30T06:07:26;23.20;72.80
40738;DHT22;54759;48.094;-1.628;2023-07-30T06:10:29;23.20;72.00
40738;DHT22;54759;48.094;-1.628;2023-07-30T06:13:31;23.20;71.90
40738;DHT22;54759;48.094;-1.628;2023-07-30T06:16:32;23.20;71.70
40738;DHT22;54759;48.094;-1.628;2023-07-30T06:19:34;22.70;71.80
40738;DHT22;54759;48.094;-1.628;2023-07-30T06:22:36;23.00;71.70
40738;DHT22;54759;48.094;-1.628;2023-07-30T06:25:40;23.10;72.40
40738;DHT22;54759;48.094;-1.628;2023-07-30T06:28:42;23.10;71.70
40738;DHT22;54759;48.094;-1.628;2023-07-30T06:31:46;23.20;72.10
40738;DHT22;54759;48.094;-1.628;2023-07-30T06:34:48;23.20;71.80
40738;DHT22;54759;48.094;-1.628;2023-07-30T06:37:52;23.20;72.10
40738;DHT22;54759;48.094;-1.628;2023-07-30T06:40:57;23.00;72.40
40738;DHT22;54759;48.094;-1.628;2023-07-30T06:43:58;23.00;68.40
40738;DHT22;54759;48.094;-1.628;2023-07-30T06:47:00;22.10;71.20
40738;DHT22;54759;48.094;-1.628;2023-07-30T06:50:02;23.10;71.90
40738;DHT22;54759;48.094;-1.628;2023-07-30T06:53:04;23.20;71.20
40738;DHT22;54759;48.094;-1.628;2023-07-30T06:56:06;23.10;71.60
40738;DHT22;54759;48.094;-1.628;2023-07-30T06:59:07;23.20;71.60
40738;DHT22;54759;48.094;-1.628;2023-07-30T07:02:11;23.20;72.60
40738;DHT22;54759;48.094;-1.628;2023-07-30T07:05:12;23.10;72.20
40738;DHT22;54759;48.094;-1.628;2023-07-30T07:08:14;23.20;72.10
40738;DHT22;54759;48.094;-1.628;2023-07-30T07:11:16;23.20;72.50
40738;DHT22;54759;48.094;-1.628;2023-07-30T07:14:17;23.30;72.60
40738;DHT22;54759;48.094;-1.628;2023-07-30T07:17:19;23.20;72.20
40738;DHT22;54759;48.094;-1.628;2023-07-30T07:20:20;23.50;72.70
40738;DHT22;54759;48.094;-1.628;2023-07-30T07:23:22;22.90;72.40
40738;DHT22;54759;48.094;-1.628;2023-07-30T07:26:31;23.20;72.10
40738;DHT22;54759;48.094;-1.628;2023-07-30T07:29:35;23.20;71.80
40738;DHT22;54759;48.094;-1.628;2023-07-30T07:32:37;22.80;71.90
40738;DHT22;54759;48.094;-1.628;2023-07-30T07:35:40;22.80;71.90
40738;DHT22;54759;48.094;-1.628;2023-07-30T07:38:41;23.20;72.20
40738;DHT22;54759;48.094;-1.628;2023-07-30T07:41:44;23.20;72.00
40738;DHT22;54759;48.094;-1.628;2023-07-30T07:44:47;23.00;72.60
40738;DHT22;54759;48.094;-1.628;2023-07-30T07:47:48;23.20;71.70
40738;DHT22;54759;48.094;-1.628;2023-07-30T07:50:50;23.20;72.90
40738;DHT22;54759;48.094;-1.628;2023-07-30T07:53:51;23.30;72.50
40738;DHT22;54759;48.094;-1.628;2023-07-30T07:56:53;23.30;72.30
40738;DHT22;54759;48.094;-1.628;2023-07-30T07:59:57;23.00;89.70
40738;DHT22;54759;48.094;-1.628;2023-07-30T08:02:58;23.00;72.40
40738;DHT22;54759;48.094;-1.628;2023-07-30T08:06:00;23.20;71.80
40738;DHT22;54759;48.094;-1.628;2023-07-30T08:09:02;23.30;72.10
40738;DHT22;54759;48.094;-1.628;2023-07-30T08:12:05;23.40;71.30
40738;DHT22;54759;48.094;-1.628;2023-07-30T08:15:07;23.40;71.40
40738;DHT22;54759;48.094;-1.628;2023-07-30T08:18:09;23.60;71.60
40738;DHT22;54759;48.094;-1.628;2023-07-30T08:21:10;23.40;72.10
40738;DHT22;54759;48.094;-1.628;2023-07-30T08:24:12;23.30;71.20
40738;DHT22;54759;48.094;-1.628;2023-07-30T08:27:14;23.40;72.00
40738;DHT22;54759;48.094;-1.628;2023-07-30T08:30:16;23.40;71.80
40738;DHT22;54759;48.094;-1.628;2023-07-30T08:33:18;23.40;71.40
40738;DHT22;54759;48.094;-1.628;2023-07-30T08:36:19;23.10;70.80
40738;DHT22;54759;48.094;-1.628;2023-07-30T08:39:24;23.70;72.00
40738;DHT22;54759;48.094;-1.628;2023-07-30T08:42:27;23.40;71.00
40738;DHT22;54759;48.094;-1.628;2023-07-30T08:45:29;23.40;70.90
40738;DHT22;54759;48.094;-1.628;2023-07-30T08:48:30;23.00;70.40
40738;DHT22;54759;48.094;-1.628;2023-07-30T08:51:36;23.40;68.70
40738;DHT22;54759;48.094;-1.628;2023-07-30T08:54:40;23.20;70.30
40738;DHT22;54759;48.094;-1.628;2023-07-30T08:57:45;22.90;69.20
40738;DHT22;54759;48.094;-1.628;2023-07-30T09:00:49;23.40;70.70
40738;DHT22;54759;48.094;-1.628;2023-07-30T09:03:54;23.40;70.70
40738;DHT22;54759;48.094;-1.628;2023-07-30T09:06:56;23.50;71.30
40738;DHT22;54759;48.094;-1.628;2023-07-30T09:09:57;23.40;70.90
40738;DHT22;54759;48.094;-1.628;2023-07-30T09:13:01;23.30;70.50
40738;DHT22;54759;48.094;-1.628;2023-07-30T09:16:08;23.50;70.60
40738;DHT22;54759;48.094;-1.628;2023-07-30T09:19:16;23.30;70.90
40738;DHT22;54759;48.094;-1.628;2023-07-30T09:22:24;23.60;70.90
40738;DHT22;54759;48.094;-1.628;2023-07-30T09:25:27;23.20;70.50
40738;DHT22;54759;48.094;-1.628;2023-07-30T09:28:31;23.10;70.40
40738;DHT22;54759;48.094;-1.628;2023-07-30T09:31:46;23.50;70.40
40738;DHT22;54759;48.094;-1.628;2023-07-30T09:34:48;23.50;70.40
40738;DHT22;54759;48.094;-1.628;2023-07-30T09:37:51;23.40;70.60
40738;DHT22;54759;48.094;-1.628;2023-07-30T09:41:00;23.40;70.20
40738;DHT22;54759;48.094;-1.628;2023-07-30T09:44:03;23.40;70.20
40738;DHT22;54759;48.094;-1.628;2023-07-30T09:47:09;23.70;70.40
40738;DHT22;54759;48.094;-1.628;2023-07-30T09:50:11;23.60;70.20
40738;DHT22;54759;48.094;-1.628;2023-07-30T09:53:15;23.50;70.10
40738;DHT22;54759;48.094;-1.628;2023-07-30T09:56:20;23.60;70.60
40738;DHT22;54759;48.094;-1.628;2023-07-30T09:59:25;23.40;70.10
40738;DHT22;54759;48.094;-1.628;2023-07-30T10:02:28;23.50;70.20
40738;DHT22;54759;48.094;-1.628;2023-07-30T10:05:34;23.60;69.70
40738;DHT22;54759;48.094;-1.628;2023-07-30T10:08:38;23.20;69.60
40738;DHT22;54759;48.094;-1.628;2023-07-30T10:11:44;23.70;70.30
40738;DHT22;54759;48.094;-1.628;2023-07-30T10:14:47;23.80;66.50
40738;DHT22;54759;48.094;-1.628;2023-07-30T10:17:48;23.40;70.70
40738;DHT22;54759;48.094;-1.628;2023-07-30T10:20:53;23.30;69.40
40738;DHT22;54759;48.094;-1.628;2023-07-30T10:23:59;23.30;69.20
40738;DHT22;54759;48.094;-1.628;2023-07-30T10:27:08;23.60;69.80
40738;DHT22;54759;48.094;-1.628;2023-07-30T10:30:13;23.40;69.60
40738;DHT22;54759;48.094;-1.628;2023-07-30T10:33:14;23.30;69.50
40738;DHT22;54759;48.094;-1.628;2023-07-30T10:36:18;23.30;69.10
40738;DHT22;54759;48.094;-1.628;2023-07-30T10:39:21;23.40;68.90
40738;DHT22;54759;48.094;-1.628;2023-07-30T10:42:33;23.40;69.30
40738;DHT22;54759;48.094;-1.628;2023-07-30T10:45:36;23.40;68.70
40738;DHT22;54759;48.094;-1.628;2023-07-30T10:48:38;23.60;68.70
40738;DHT22;54759;48.094;-1.628;2023-07-30T10:51:40;23.80;68.70
40738;DHT22;54759;48.094;-1.628;2023-07-30T10:54:43;23.80;68.80
40738;DHT22;54759;48.094;-1.628;2023-07-30T10:57:44;23.60;68.90
40738;DHT22;54759;48.094;-1.628;2023-07-30T11:00:49;23.80;68.60
40738;DHT22;54759;48.094;-1.628;2023-07-30T11:03:51;24.00;68.50
40738;DHT22;54759;48.094;-1.628;2023-07-30T11:06:53;24.00;68.50
40738;DHT22;54759;48.094;-1.628;2023-07-30T11:09:59;23.90;68.00
40738;DHT22;54759;48.094;-1.628;2023-07-30T11:13:01;23.40;67.70
40738;DHT22;54759;48.094;-1.628;2023-07-30T11:16:05;24.00;68.10
40738;DHT22;54759;48.094;-1.628;2023-07-30T11:19:08;24.00;68.60
40738;DHT22;54759;48.094;-1.628;2023-07-30T11:22:10;23.90;68.00
40738;DHT22;54759;48.094;-1.628;2023-07-30T11:25:16;23.90;68.50
40738;DHT22;54759;48.094;-1.628;2023-07-30T11:28:28;24.10;67.50
40738;DHT22;54759;48.094;-1.628;2023-07-30T11:31:34;24.10;68.20
40738;DHT22;54759;48.094;-1.628;2023-07-30T11:34:35;23.90;67.70
40738;DHT22;54759;48.094;-1.628;2023-07-30T11:37:40;24.10;67.70
40738;DHT22;54759;48.094;-1.628;2023-07-30T11:40:43;24.00;67.50
40738;DHT22;54759;48.094;-1.628;2023-07-30T11:43:45;24.10;67.60
40738;DHT22;54759;48.094;-1.628;2023-07-30T11:46:53;24.10;67.30
40738;DHT22;54759;48.094;-1.628;2023-07-30T11:49:56;23.80;67.10
40738;DHT22;54759;48.094;-1.628;2023-07-30T11:52:57;24.70;67.40
40738;DHT22;54759;48.094;-1.628;2023-07-30T11:55:59;24.10;67.20
40738;DHT22;54759;48.094;-1.628;2023-07-30T11:59:01;24.00;67.00
40738;DHT22;54759;48.094;-1.628;2023-07-30T12:02:05;24.00;66.80
40738;DHT22;54759;48.094;-1.628;2023-07-30T12:05:12;23.90;66.40
40738;DHT22;54759;48.094;-1.628;2023-07-30T12:08:16;24.00;66.70
40738;DHT22;54759;48.094;-1.628;2023-07-30T12:11:21;24.20;66.70
40738;DHT22;54759;48.094;-1.628;2023-07-30T12:14:28;24.30;67.30
40738;DHT22;54759;48.094;-1.628;2023-07-30T12:17:31;24.00;66.50
40738;DHT22;54759;48.094;-1.628;2023-07-30T12:20:34;24.20;66.60
40738;DHT22;54759;48.094;-1.628;2023-07-30T12:23:36;24.30;66.50
40738;DHT22;54759;48.094;-1.628;2023-07-30T12:26:38;24.30;66.40
40738;DHT22;54759;48.094;-1.628;2023-07-30T12:29:42;24.40;66.40
40738;DHT22;54759;48.094;-1.628;2023-07-30T12:32:45;24.30;66.30
40738;DHT22;54759;48.094;-1.628;2023-07-30T12:35:47;24.40;66.30
40738;DHT22;54759;48.094;-1.628;2023-07-30T12:38:55;24.40;66.10
40738;DHT22;54759;48.094;-1.628;2023-07-30T12:41:57;24.50;66.00
40738;DHT22;54759;48.094;-1.628;2023-07-30T12:45:01;24.50;66.10
40738;DHT22;54759;48.094;-1.628;2023-07-30T12:48:04;24.50;66.50
40738;DHT22;54759;48.094;-1.628;2023-07-30T12:51:09;24.40;66.30
40738;DHT22;54759;48.094;-1.628;2023-07-30T12:54:15;24.40;66.10
40738;DHT22;54759;48.094;-1.628;2023-07-30T12:57:18;24.30;65.80
40738;DHT22;54759;48.094;-1.628;2023-07-30T13:00:19;24.40;65.60
40738;DHT22;54759;48.094;-1.628;2023-07-30T13:03:24;24.50;65.80
40738;DHT22;54759;48.094;-1.628;2023-07-30T13:06:26;24.50;65.60
40738;DHT22;54759;48.094;-1.628;2023-07-30T13:09:30;24.50;66.10
40738;DHT22;54759;48.094;-1.628;2023-07-30T13:12:31;24.50;66.00
40738;DHT22;54759;48.094;-1.628;2023-07-30T13:15:34;24.60;65.80
40738;DHT22;54759;48.094;-1.628;2023-07-30T13:18:36;24.60;65.60
40738;DHT22;54759;48.094;-1.628;2023-07-30T13:21:38;24.60;65.90
40738;DHT22;54759;48.094;-1.628;2023-07-30T13:24:42;24.30;65.40
40738;DHT22;54759;48.094;-1.628;2023-07-30T13:27:43;24.60;65.80
40738;DHT22;54759;48.094;-1.628;2023-07-30T13:30:45;24.60;65.70
40738;DHT22;54759;48.094;-1.628;2023-07-30T13:33:49;24.50;65.70
40738;DHT22;54759;48.094;-1.628;2023-07-30T13:36:52;24.50;65.60
40738;DHT22;54759;48.094;-1.628;2023-07-30T13:39:53;24.20;65.40
40738;DHT22;54759;48.094;-1.628;2023-07-30T13:42:57;24.60;65.60
40738;DHT22;54759;48.094;-1.628;2023-07-30T13:45:58;24.60;65.60
40738;DHT22;54759;48.094;-1.628;2023-07-30T13:49:00;24.70;65.40
40738;DHT22;54759;48.094;-1.628;2023-07-30T13:52:02;24.70;65.40
40738;DHT22;54759;48.094;-1.628;2023-07-30T13:55:04;24.60;65.10
40738;DHT22;54759;48.094;-1.628;2023-07-30T13:58:06;24.60;65.20
40738;DHT22;54759;48.094;-1.628;2023-07-30T14:01:07;24.60;65.20
40738;DHT22;54759;48.094;-1.628;2023-07-30T14:04:11;24.70;65.10
40738;DHT22;54759;48.094;-1.628;2023-07-30T14:07:12;24.30;65.20
40738;DHT22;54759;48.094;-1.628;2023-07-30T14:10:14;24.30;64.80
40738;DHT22;54759;48.094;-1.628;2023-07-30T14:13:17;24.80;65.00
40738;DHT22;54759;48.094;-1.628;2023-07-30T14:16:19;24.80;64.90
40738;DHT22;54759;48.094;-1.628;2023-07-30T14:19:23;24.80;65.30
40738;DHT22;54759;48.094;-1.628;2023-07-30T14:22:24;24.30;64.30
40738;DHT22;54759;48.094;-1.628;2023-07-30T14:25:25;24.80;65.00
40738;DHT22;54759;48.094;-1.628;2023-07-30T14:28:27;24.30;64.50
40738;DHT22;54759;48.094;-1.628;2023-07-30T14:31:28;24.70;64.20
40738;DHT22;54759;48.094;-1.628;2023-07-30T14:34:30;24.70;64.30
40738;DHT22;54759;48.094;-1.628;2023-07-30T14:37:32;24.40;64.00
40738;DHT22;54759;48.094;-1.628;2023-07-30T14:40:37;24.80;64.00
40738;DHT22;54759;48.094;-1.628;2023-07-30T14:43:38;24.90;64.10
40738;DHT22;54759;48.094;-1.628;2023-07-30T14:46:39;25.20;64.30
40738;DHT22;54759;48.094;-1.628;2023-07-30T14:49:42;24.90;63.70
40738;DHT22;54759;48.094;-1.628;2023-07-30T14:52:44;24.90;63.90
40738;DHT22;54759;48.094;-1.628;2023-07-30T14:55:45;24.80;64.40
40738;DHT22;54759;48.094;-1.628;2023-07-30T14:58:47;24.90;64.10
40738;DHT22;54759;48.094;-1.628;2023-07-30T15:01:48;24.90;63.90
40738;DHT22;54759;48.094;-1.628;2023-07-30T15:04:51;24.50;63.60
40738;DHT22;54759;48.094;-1.628;2023-07-30T15:07:52;25.00;63.60
40738;DHT22;54759;48.094;-1.628;2023-07-30T15:10:54;24.70;63.70
40738;DHT22;54759;48.094;-1.628;2023-07-30T15:13:55;25.00;63.80
40738;DHT22;54759;48.094;-1.628;2023-07-30T15:16:57;25.00;63.80
40738;DHT22;54759;48.094;-1.628;2023-07-30T15:19:59;24.90;64.00
40738;DHT22;54759;48.094;-1.628;2023-07-30T15:23:01;24.90;64.00
40738;DHT22;54759;48.094;-1.628;2023-07-30T15:26:02;25.00;63.40
40738;DHT22;54759;48.094;-1.628;2023-07-30T15:29:04;25.00;63.50
40738;DHT22;54759;48.094;-1.628;2023-07-30T15:32:06;24.70;63.60
40738;DHT22;54759;48.094;-1.628;2023-07-30T15:35:08;25.10;63.90
40738;DHT22;54759;48.094;-1.628;2023-07-30T15:38:12;24.50;63.90
40738;DHT22;54759;48.094;-1.628;2023-07-30T15:41:14;24.70;63.60
40738;DHT22;54759;48.094;-1.628;2023-07-30T15:44:15;25.10;63.20
40738;DHT22;54759;48.094;-1.628;2023-07-30T15:47:19;25.20;63.40
40738;DHT22;54759;48.094;-1.628;2023-07-30T15:50:22;25.20;60.00
40738;DHT22;54759;48.094;-1.628;2023-07-30T15:53:25;25.10;63.00
40738;DHT22;54759;48.094;-1.628;2023-07-30T15:56:26;26.00;64.00
40738;DHT22;54759;48.094;-1.628;2023-07-30T15:59:27;25.20;63.00
40738;DHT22;54759;48.094;-1.628;2023-07-30T16:02:29;25.10;62.60
40738;DHT22;54759;48.094;-1.628;2023-07-30T16:05:31;25.10;62.80
40738;DHT22;54759;48.094;-1.628;2023-07-30T16:08:34;25.00;62.50
40738;DHT22;54759;48.094;-1.628;2023-07-30T16:11:35;25.00;62.90
40738;DHT22;54759;48.094;-1.628;2023-07-30T16:14:39;25.20;62.60
40738;DHT22;54759;48.094;-1.628;2023-07-30T16:17:41;25.10;62.80
40738;DHT22;54759;48.094;-1.628;2023-07-30T16:20:43;25.00;62.70
40738;DHT22;54759;48.094;-1.628;2023-07-30T16:23:45;25.20;62.80
40738;DHT22;54759;48.094;-1.628;2023-07-30T16:26:47;25.10;62.90
40738;DHT22;54759;48.094;-1.628;2023-07-30T16:29:48;25.10;63.00
40738;DHT22;54759;48.094;-1.628;2023-07-30T16:32:49;25.10;62.80
40738;DHT22;54759;48.094;-1.628;2023-07-30T16:35:51;25.00;62.80
40738;DHT22;54759;48.094;-1.628;2023-07-30T16:38:53;24.50;62.00
40738;DHT22;54759;48.094;-1.628;2023-07-30T16:41:55;25.00;62.60
40738;DHT22;54759;48.094;-1.628;2023-07-30T16:44:57;25.10;62.20
40738;DHT22;54759;48.094;-1.628;2023-07-30T16:48:02;25.10;62.80
40738;DHT22;54759;48.094;-1.628;2023-07-30T16:51:07;25.10;62.70
40738;DHT22;54759;48.094;-1.628;2023-07-30T16:54:09;25.10;62.90
40738;DHT22;54759;48.094;-1.628;2023-07-30T16:57:14;25.10;63.30
40738;DHT22;54759;48.094;-1.628;2023-07-30T17:00:16;25.00;63.40
40738;DHT22;54759;48.094;-1.628;2023-07-30T17:03:17;25.10;62.60
40738;DHT22;54759;48.094;-1.628;2023-07-30T17:06:19;25.10;63.00
40738;DHT22;54759;48.094;-1.628;2023-07-30T17:09:21;25.10;63.20
40738;DHT22;54759;48.094;-1.628;2023-07-30T17:12:25;25.20;62.90
40738;DHT22;54759;48.094;-1.628;2023-07-30T17:15:26;25.10;62.90
40738;DHT22;54759;48.094;-1.628;2023-07-30T17:18:28;25.00;63.90
40738;DHT22;54759;48.094;-1.628;2023-07-30T17:21:32;24.70;62.70
40738;DHT22;54759;48.094;-1.628;2023-07-30T17:24:34;24.80;62.60
40738;DHT22;54759;48.094;-1.628;2023-07-30T17:27:36;25.20;63.00
40738;DHT22;54759;48.094;-1.628;2023-07-30T17:30:37;24.90;62.70
40738;DHT22;54759;48.094;-1.628;2023-07-30T17:33:39;25.90;63.20
40738;DHT22;54759;48.094;-1.628;2023-07-30T17:36:42;25.10;62.80
40738;DHT22;54759;48.094;-1.628;2023-07-30T17:39:43;25.20;62.20
40738;DHT22;54759;48.094;-1.628;2023-07-30T17:42:47;24.80;62.60
40738;DHT22;54759;48.094;-1.628;2023-07-30T17:45:50;25.20;62.10
40738;DHT22;54759;48.094;-1.628;2023-07-30T17:48:53;25.20;62.80
40738;DHT22;54759;48.094;-1.628;2023-07-30T17:51:55;26.10;62.90
40738;DHT22;54759;48.094;-1.628;2023-07-30T17:54:56;24.80;62.40
40738;DHT22;54759;48.094;-1.628;2023-07-30T17:57:58;25.30;62.10
40738;DHT22;54759;48.094;-1.628;2023-07-30T18:01:05;25.10;62.00
40738;DHT22;54759;48.094;-1.628;2023-07-30T18:04:07;25.30;62.40
40738;DHT22;54759;48.094;-1.628;2023-07-30T18:07:12;25.20;62.00
40738;DHT22;54759;48.094;-1.628;2023-07-30T18:10:14;25.20;62.30
40738;DHT22;54759;48.094;-1.628;2023-07-30T18:13:16;25.30;62.10
40738;DHT22;54759;48.094;-1.628;2023-07-30T18:16:20;25.10;61.70
40738;DHT22;54759;48.094;-1.628;2023-07-30T18:19:22;25.30;59.00
40738;DHT22;54759;48.094;-1.628;2023-07-30T18:22:24;25.20;62.00
40738;DHT22;54759;48.094;-1.628;2023-07-30T18:25:26;25.20;62.00
40738;DHT22;54759;48.094;-1.628;2023-07-30T18:28:27;24.50;61.60
40738;DHT22;54759;48.094;-1.628;2023-07-30T18:31:29;25.30;62.20
40738;DHT22;54759;48.094;-1.628;2023-07-30T18:34:32;25.40;62.10
40738;DHT22;54759;48.094;-1.628;2023-07-30T18:37:34;25.30;61.90
40738;DHT22;54759;48.094;-1.628;2023-07-30T18:40:36;25.40;61.80
40738;DHT22;54759;48.094;-1.628;2023-07-30T18:43:38;25.20;61.60
40738;DHT22;54759;48.094;-1.628;2023-07-30T18:46:41;25.30;61.80
40738;DHT22;54759;48.094;-1.628;2023-07-30T18:49:42;24.90;61.50
40738;DHT22;54759;48.094;-1.628;2023-07-30T18:52:44;24.30;60.90
40738;DHT22;54759;48.094;-1.628;2023-07-30T18:55:46;25.30;61.70